createdAt,value
2023-02-04T00:00:01.075Z,99999.94
2023-02-04T00:02:27.788Z,100005.25
2023-02-04T00:04:54.313Z,100007.91
2023-02-04T00:07:20.951Z,100007.38
2023-02-04T00:09:47.475Z,100008.13
2023-02-04T00:12:14.455Z,100001.91
2023-02-04T00:14:41.060Z,100006.50
2023-02-04T00:17:13.273Z,100009.41
2023-02-04T00:19:40.971Z,100004.91
2023-02-04T00:22:08.997Z,99999.91
2023-02-04T00:24:36.400Z,99994.47
2023-02-04T00:27:04.390Z,100001.59
2023-02-04T00:29:30.980Z,99995.63
2023-02-04T00:31:58.250Z,99988.28
2023-02-04T00:34:25.219Z,99979.56
2023-02-04T00:36:51.778Z,99978.69
2023-02-04T00:39:18.456Z,99976.47
2023-02-04T00:41:44.980Z,99936.53
2023-02-04T00:44:13.948Z,99968.91
2023-02-04T00:46:42.563Z,99956.25
2023-02-04T00:49:10.810Z,99954.63
2023-02-04T00:51:41.067Z,99956.22
2023-02-04T00:54:08.015Z,99950.69
2023-02-04T00:56:35.139Z,99955.16
2023-02-04T00:59:02.068Z,99942.38
2023-02-04T01:01:28.777Z,99952.69
2023-02-04T01:03:55.602Z,99941.50
2023-02-04T01:06:22.188Z,99958.03
2023-02-04T01:08:48.768Z,99960.69
2023-02-04T01:11:15.383Z,99941.81
2023-02-04T01:13:42.296Z,99952.69
2023-02-04T01:16:09.392Z,99956.31
2023-02-04T01:18:36.093Z,99947.25
2023-02-04T01:21:02.731Z,99944.34
2023-02-04T01:23:29.316Z,99937.66
2023-02-04T01:25:55.966Z,99946.28
2023-02-04T01:28:22.709Z,99933.69
2023-02-04T01:30:49.396Z,99938.72
2023-02-04T01:33:15.997Z,99948.19
2023-02-04T01:35:42.529Z,99934.41
2023-02-04T01:38:09.141Z,99925.47
2023-02-04T01:40:35.751Z,99941.22
2023-02-04T01:43:02.480Z,99955.09
2023-02-04T01:45:30.741Z,99943.47
2023-02-04T01:47:57.528Z,99957.66
2023-02-04T01:50:24.160Z,99988.06
2023-02-04T01:52:50.859Z,99955.09
2023-02-04T01:55:19.852Z,99967.34
2023-02-04T01:57:47.294Z,99962.22
2023-02-04T02:00:26.132Z,99957.03
2023-02-04T02:02:54.223Z,99969.50
2023-02-04T02:05:27.763Z,99980.91
2023-02-04T02:07:57.636Z,99979.72
2023-02-04T02:10:24.829Z,99979.00
2023-02-04T02:12:52.061Z,99981.22
2023-02-04T02:15:19.008Z,99990.53
2023-02-04T02:17:45.949Z,99988.06
2023-02-04T02:20:15.964Z,99992.53
2023-02-04T02:23:18.670Z,99976.25
2023-02-04T02:25:46.141Z,99986.38
2023-02-04T02:28:16.670Z,99989.88
2023-02-04T02:30:47.345Z,99988.31
2023-02-04T02:33:15.719Z,99991.19
2023-02-04T02:35:43.595Z,99975.91
2023-02-04T02:38:11.900Z,99966.22
2023-02-04T02:40:39.580Z,99960.03
2023-02-04T02:43:09.368Z,99954.03
2023-02-04T02:45:36.030Z,99965.16
2023-02-04T02:48:03.364Z,99960.53
2023-02-04T02:50:32.399Z,99953.22
2023-02-04T02:52:59.684Z,99960.25
2023-02-04T02:55:28.648Z,99937.84
2023-02-04T02:57:56.549Z,99947.09
2023-02-04T03:00:25.037Z,99944.63
2023-02-04T03:03:06.781Z,99941.47
2023-02-04T03:05:38.739Z,99938.91
2023-02-04T03:08:07.459Z,99942.66
2023-02-04T03:10:34.239Z,99938.91
2023-02-04T03:13:00.967Z,99941.47
2023-02-04T03:15:27.680Z,99927.28
2023-02-04T03:17:56.582Z,99934.09
2023-02-04T03:20:27.447Z,99930.66
2023-02-04T03:22:54.726Z,99938.91
2023-02-04T03:25:24.506Z,99947.00
2023-02-04T03:27:54.391Z,99939.63
2023-02-04T03:30:22.303Z,99936.00
2023-02-04T03:32:48.928Z,99952.13
2023-02-04T03:35:15.609Z,99917.34
2023-02-04T03:37:42.177Z,99934.31
2023-02-04T03:40:09.502Z,99922.91
2023-02-04T03:42:36.048Z,99929.31
2023-02-04T03:45:02.742Z,99929.94
2023-02-04T03:47:29.348Z,99932.38
2023-02-04T03:49:55.932Z,99933.34
2023-02-04T03:52:22.480Z,99941.47
2023-02-04T03:54:49.106Z,99929.94
2023-02-04T03:57:18.572Z,99941.69
2023-02-04T03:59:45.144Z,99934.09
2023-02-04T04:02:11.680Z,99966.75
2023-02-04T04:04:38.280Z,99919.28
2023-02-04T04:07:04.895Z,99947.00
2023-02-04T04:09:31.515Z,99936.44
2023-02-04T04:11:58.060Z,99928.56
2023-02-04T04:14:24.616Z,99936.53
2023-02-04T04:16:51.174Z,99926.75
2023-02-04T04:19:17.724Z,99919.72
2023-02-04T04:21:44.392Z,99916.31
2023-02-04T04:24:10.955Z,99916.09
2023-02-04T04:26:37.519Z,99925.06
2023-02-04T04:29:04.072Z,99908.59
2023-02-04T04:31:30.861Z,99909.78
2023-02-04T04:33:57.460Z,99901.41
2023-02-04T04:36:24.056Z,99896.16
2023-02-04T04:38:50.639Z,99898.50
2023-02-04T04:41:17.200Z,99896.44
2023-02-04T04:43:43.786Z,99888.69
2023-02-04T04:46:10.344Z,99899.13
2023-02-04T04:48:36.901Z,99890.16
2023-02-04T04:51:03.559Z,99891.00
2023-02-04T04:53:30.198Z,99900.50
2023-02-04T04:55:56.748Z,99890.66
2023-02-04T04:58:23.322Z,99893.47
2023-02-04T05:00:49.893Z,99884.25
2023-02-04T05:03:16.553Z,99881.94
2023-02-04T05:05:44.316Z,99879.91
2023-02-04T05:08:13.389Z,99896.88
2023-02-04T05:10:41.141Z,99877.22
2023-02-04T05:13:07.728Z,99903.69
2023-02-04T05:15:34.787Z,99879.56
2023-02-04T05:18:01.904Z,99880.75
2023-02-04T05:20:28.525Z,99910.47
2023-02-04T05:23:01.109Z,99887.56
2023-02-04T05:25:28.882Z,99885.50
2023-02-04T05:27:55.611Z,99876.56
2023-02-04T05:30:22.680Z,99873.31
2023-02-04T05:32:49.309Z,99917.41
2023-02-04T05:35:16.379Z,99884.63
2023-02-04T05:37:42.953Z,99861.81
2023-02-04T05:40:10.197Z,99879.00
2023-02-04T05:42:36.787Z,99857.56
2023-02-04T05:45:03.762Z,99869.75
2023-02-04T05:47:30.327Z,99864.63
2023-02-04T05:49:56.977Z,99874.91
2023-02-04T05:52:23.519Z,99888.78
2023-02-04T05:54:50.101Z,99875.56
2023-02-04T05:57:16.674Z,99921.00
2023-02-04T05:59:43.227Z,99882.31
2023-02-04T06:02:09.915Z,99866.53
2023-02-04T06:04:36.497Z,99868.81
2023-02-04T06:07:03.538Z,99861.47
2023-02-04T06:09:30.085Z,99862.00
2023-02-04T06:11:57.566Z,99852.75
2023-02-04T06:14:24.280Z,99863.50
2023-02-04T06:16:50.960Z,99901.13
2023-02-04T06:19:17.555Z,99892.22
2023-02-04T06:21:44.160Z,99916.69
2023-02-04T06:24:10.823Z,99900.19
2023-02-04T06:26:37.448Z,99927.25
2023-02-04T06:29:05.158Z,99935.75
2023-02-04T06:31:32.014Z,99940.75
2023-02-04T06:33:58.692Z,99934.66
2023-02-04T06:36:25.282Z,99961.59
2023-02-04T06:38:51.816Z,99979.75
2023-02-04T06:41:18.402Z,99991.94
2023-02-04T06:43:45.004Z,99990.00
2023-02-04T06:46:11.614Z,99997.56
2023-02-04T06:48:38.284Z,100026.84
2023-02-04T06:51:04.972Z,100021.75
2023-02-04T06:53:31.742Z,100026.34
2023-02-04T06:55:58.283Z,100022.81
2023-02-04T06:58:24.958Z,100037.06
2023-02-04T07:00:51.508Z,100041.63
2023-02-04T07:03:18.054Z,100043.22
2023-02-04T07:05:44.626Z,100046.75
2023-02-04T07:08:11.187Z,100040.69
2023-02-04T07:10:37.794Z,100056.66
2023-02-04T07:13:04.334Z,100048.88
2023-02-04T07:15:31.721Z,100044.81
2023-02-04T07:17:58.344Z,100051.47
2023-02-04T07:20:24.920Z,100064.03
2023-02-04T07:22:51.497Z,100063.56
2023-02-04T07:25:18.083Z,100075.63
2023-02-04T07:27:47.616Z,100057.22
2023-02-04T07:30:14.396Z,100075.66
2023-02-04T07:32:41.077Z,100056.78
2023-02-04T07:35:08.115Z,100080.06
2023-02-04T07:37:34.713Z,100076.75
2023-02-04T07:40:01.376Z,100114.22
2023-02-04T07:42:28.331Z,100108.06
2023-02-04T07:44:54.950Z,100131.03
2023-02-04T07:47:21.616Z,100122.41
2023-02-04T07:49:48.172Z,100116.03
2023-02-04T07:52:14.965Z,100118.19
2023-02-04T07:54:41.520Z,100117.53
2023-02-04T07:57:08.103Z,100106.84
2023-02-04T07:59:34.740Z,100108.28
2023-02-04T08:02:01.956Z,100091.72
2023-02-04T08:04:28.585Z,100093.13
2023-02-04T08:06:55.234Z,100096.69
2023-02-04T08:09:21.848Z,100095.53
2023-02-04T08:11:48.417Z,100086.78
2023-02-04T08:14:14.979Z,100100.97
2023-02-04T08:16:41.513Z,100099.94
2023-02-04T08:19:08.060Z,100117.19
2023-02-04T08:21:34.612Z,100113.88
2023-02-04T08:24:01.238Z,100124.81
2023-02-04T08:26:27.808Z,100160.94
2023-02-04T08:28:54.359Z,100178.81
2023-02-04T08:31:21.029Z,100141.38
2023-02-04T08:33:47.705Z,100173.69
2023-02-04T08:36:14.267Z,100215.31
2023-02-04T08:38:41.484Z,100206.09
2023-02-04T08:41:08.200Z,100212.53
2023-02-04T08:43:36.971Z,100229.22
2023-02-04T08:46:03.872Z,100237.94
2023-02-04T08:48:30.470Z,100244.00
2023-02-04T08:50:57.068Z,100256.19
2023-02-04T08:53:24.975Z,100246.31
2023-02-04T08:55:51.551Z,100245.81
2023-02-04T08:58:18.084Z,100249.50
2023-02-04T09:00:44.896Z,100274.16
2023-02-04T09:03:11.482Z,100273.38
2023-02-04T09:05:38.040Z,100293.16
2023-02-04T09:08:04.701Z,100308.38
2023-02-04T09:10:31.766Z,100315.03
2023-02-04T09:12:58.555Z,100317.22
2023-02-04T09:15:25.513Z,100297.44
2023-02-04T09:18:04.466Z,100320.84
2023-02-04T09:20:31.355Z,100325.63
2023-02-04T09:22:58.101Z,100338.78
2023-02-04T09:25:24.704Z,100358.66
2023-02-04T09:27:51.298Z,100367.41
2023-02-04T09:30:18.080Z,100375.91
2023-02-04T09:32:44.759Z,100391.22
2023-02-04T09:35:11.307Z,100388.34
2023-02-04T09:37:37.882Z,100419.03
2023-02-04T09:40:04.790Z,100418.06
2023-02-04T09:42:31.369Z,100429.28
2023-02-04T09:44:57.961Z,100442.19
2023-02-04T09:47:27.089Z,100454.09
2023-02-04T09:49:53.703Z,100471.88
2023-02-04T09:52:20.966Z,100460.72
2023-02-04T09:54:47.544Z,100465.34
2023-02-04T09:57:17.743Z,100470.72
2023-02-04T09:59:45.107Z,100485.72
2023-02-04T10:02:24.837Z,100495.75
2023-02-04T10:04:57.515Z,100505.81
2023-02-04T10:07:26.532Z,100523.84
2023-02-04T10:09:54.421Z,100525.53
2023-02-04T10:12:21.794Z,100524.47
2023-02-04T10:14:48.871Z,100515.59
2023-02-04T10:17:21.045Z,100537.66
2023-02-04T10:19:48.003Z,100533.63
2023-02-04T10:22:22.471Z,100545.88
2023-02-04T10:24:49.071Z,100556.41
2023-02-04T10:27:16.473Z,100568.84
2023-02-04T10:29:54.688Z,100579.81
2023-02-04T10:32:32.719Z,100574.66
2023-02-04T10:35:01.371Z,100601.06
2023-02-04T10:37:28.456Z,100606.78
2023-02-04T10:39:55.031Z,100615.97
2023-02-04T10:42:21.849Z,100616.44
2023-02-04T10:44:48.700Z,100626.44
2023-02-04T10:47:24.651Z,100626.72
2023-02-04T10:50:08.505Z,100635.41
2023-02-04T10:52:38.528Z,100662.38
2023-02-04T10:55:08.297Z,100676.06
2023-02-04T10:57:39.761Z,100671.22
2023-02-04T11:00:22.224Z,100690.09
2023-02-04T11:03:08.260Z,100690.56
2023-02-04T11:08:28.493Z,100710.41
2023-02-04T11:11:05.499Z,100714.63
2023-02-04T11:13:50.089Z,100725.09
2023-02-04T11:16:46.301Z,100723.09
2023-02-04T11:19:14.649Z,100745.56
2023-02-04T11:21:45.172Z,100736.31
2023-02-04T11:24:11.781Z,100739.84
2023-02-04T11:26:40.733Z,100750.28
2023-02-04T11:29:08.201Z,100754.38
2023-02-04T11:31:34.859Z,100758.34
2023-02-04T11:34:25.038Z,100769.41
2023-02-04T11:37:09.188Z,100794.72
2023-02-04T11:39:35.707Z,100760.59
2023-02-04T11:42:02.789Z,100789.28
2023-02-04T11:44:29.729Z,100789.81
2023-02-04T11:46:57.187Z,100781.88
2023-02-04T11:49:26.377Z,100794.09
2023-02-04T11:52:08.708Z,100809.34
2023-02-04T11:54:36.484Z,100800.91
2023-02-04T11:57:03.788Z,100818.09
2023-02-04T11:59:30.471Z,100822.63
2023-02-04T12:02:17.110Z,100826.91
2023-02-04T12:04:56.956Z,100822.41
2023-02-04T12:07:30.333Z,100839.75
2023-02-04T12:09:57.809Z,100857.72
2023-02-04T12:12:29.712Z,100854.69
2023-02-04T12:14:57.820Z,100861.44
2023-02-04T12:17:24.546Z,100875.50
2023-02-04T12:19:51.122Z,100875.00
2023-02-04T12:22:18.101Z,100887.25
2023-02-04T12:24:45.098Z,100907.25
2023-02-04T12:27:11.649Z,100898.63
2023-02-04T12:29:38.289Z,100897.03
2023-02-04T12:32:05.294Z,100888.50
2023-02-04T12:34:32.019Z,100910.84
2023-02-04T12:36:58.580Z,100916.50
2023-02-04T12:39:25.135Z,100913.91
2023-02-04T12:41:51.725Z,100915.69
2023-02-04T12:44:18.322Z,100939.41
2023-02-04T12:46:44.976Z,100932.72
2023-02-04T12:49:11.536Z,100946.00
2023-02-04T12:51:38.103Z,100932.91
2023-02-04T12:54:04.740Z,100945.63
2023-02-04T12:56:31.604Z,100973.03
2023-02-04T12:58:58.156Z,100952.69
2023-02-04T13:01:24.760Z,100960.63
2023-02-04T13:03:51.284Z,100961.94
2023-02-04T13:06:17.870Z,100977.13
2023-02-04T13:08:44.404Z,100981.38
2023-02-04T13:11:10.972Z,100997.56
2023-02-04T13:13:37.530Z,101005.72
2023-02-04T13:16:04.245Z,101027.13
2023-02-04T13:18:30.961Z,101025.69
2023-02-04T13:20:57.499Z,101020.41
2023-02-04T13:23:24.064Z,101035.47
2023-02-04T13:25:50.634Z,101044.75
2023-02-04T13:28:17.462Z,101052.81
2023-02-04T13:30:44.150Z,101056.50
2023-02-04T13:33:10.730Z,101052.84
2023-02-04T13:35:38.152Z,101066.94
2023-02-04T13:38:04.726Z,101071.19
2023-02-04T13:40:31.283Z,101085.78
2023-02-04T13:42:57.872Z,101091.72
2023-02-04T13:45:24.505Z,101062.78
2023-02-04T13:47:52.290Z,101079.16
2023-02-04T13:50:19.004Z,101089.28
2023-02-04T13:52:45.586Z,101087.13
2023-02-04T13:55:12.371Z,101095.22
2023-02-04T13:57:39.026Z,101109.66
2023-02-04T14:00:07.233Z,101125.22
2023-02-04T14:02:34.050Z,101137.06
2023-02-04T14:05:01.712Z,101135.81
2023-02-04T14:07:28.364Z,101142.03
2023-02-04T14:09:54.927Z,101159.53
2023-02-04T14:12:21.829Z,101162.09
2023-02-04T14:14:48.415Z,101173.75
2023-02-04T14:17:14.942Z,101176.06
2023-02-04T14:19:41.572Z,101181.19
2023-02-04T14:22:08.138Z,101182.16
2023-02-04T14:24:35.623Z,101191.63
2023-02-04T14:27:07.302Z,101212.44
2023-02-04T14:29:34.572Z,101208.34
2023-02-04T14:32:01.636Z,101203.81
2023-02-04T14:34:28.332Z,101236.94
2023-02-04T14:36:55.098Z,101238.63
2023-02-04T14:39:21.666Z,101249.16
2023-02-04T14:41:48.259Z,101258.81
2023-02-04T14:44:20.602Z,101266.69
2023-02-04T14:46:48.972Z,101274.81
2023-02-04T14:49:18.716Z,101281.88
2023-02-04T14:51:45.292Z,101263.41
2023-02-04T14:54:11.977Z,101287.75
2023-02-04T14:56:38.950Z,101275.88
2023-02-04T14:59:05.856Z,101287.06
2023-02-04T15:01:32.553Z,101284.72
2023-02-04T15:03:59.227Z,101293.50
2023-02-04T15:06:26.034Z,101283.63
2023-02-04T15:08:52.718Z,101312.09
2023-02-04T15:11:19.327Z,101310.97
2023-02-04T15:13:45.935Z,101311.97
2023-02-04T15:16:14.399Z,101313.22
2023-02-04T15:18:41.541Z,101321.69
2023-02-04T15:21:08.278Z,101313.00
2023-02-04T15:23:34.837Z,101316.81
2023-02-04T15:26:01.420Z,101342.69
2023-02-04T15:28:29.773Z,101342.31
2023-02-04T15:30:56.774Z,101350.06
2023-02-04T15:33:23.553Z,101358.06
2023-02-04T15:35:50.176Z,101356.34
2023-02-04T15:38:16.746Z,101370.03
2023-02-04T15:40:43.315Z,101369.47
2023-02-04T15:43:09.858Z,101372.97
2023-02-04T15:45:41.258Z,101400.00
2023-02-04T15:48:08.443Z,101403.59
2023-02-04T15:50:35.127Z,101419.78
2023-02-04T15:53:01.766Z,101426.16
2023-02-04T15:55:28.463Z,101422.94
2023-02-04T15:57:55.069Z,101438.44
2023-02-04T16:00:21.804Z,101444.00
2023-02-04T16:02:48.874Z,101444.53
2023-02-04T16:05:15.632Z,101455.34
2023-02-04T16:07:42.717Z,101458.50
2023-02-04T16:10:09.725Z,101463.06
2023-02-04T16:12:36.564Z,101454.19
2023-02-04T16:15:03.299Z,101466.09
2023-02-04T16:17:29.872Z,101471.06
2023-02-04T16:19:57.334Z,101492.41
2023-02-04T16:22:23.955Z,101490.78
2023-02-04T16:24:52.810Z,101483.13
2023-02-04T16:27:19.968Z,101486.25
2023-02-04T16:29:46.683Z,101473.16
2023-02-04T16:32:13.917Z,101491.97
2023-02-04T16:34:40.504Z,101483.38
2023-02-04T16:37:07.397Z,101482.50
2023-02-04T16:39:34.145Z,101486.38
2023-02-04T16:42:00.858Z,101482.06
2023-02-04T16:44:27.415Z,101492.84
2023-02-04T16:46:54.990Z,101484.94
2023-02-04T16:49:21.542Z,101490.63
2023-02-04T16:51:48.546Z,101480.09
2023-02-04T16:54:15.125Z,101484.50
2023-02-04T16:56:41.684Z,101483.09
2023-02-04T16:59:08.545Z,101493.13
2023-02-04T17:01:35.162Z,101496.81
2023-02-04T17:04:01.765Z,101501.47
2023-02-04T17:06:30.767Z,101512.06
2023-02-04T17:08:57.349Z,101510.56
2023-02-04T17:11:31.542Z,101507.13
2023-02-04T17:14:00.130Z,101500.00
2023-02-04T17:16:27.112Z,101517.00
2023-02-04T17:18:55.097Z,101521.66
2023-02-04T17:21:23.294Z,101531.34
2023-02-04T17:23:50.453Z,101527.94
2023-02-04T17:26:17.881Z,101540.59
2023-02-04T17:28:45.397Z,101533.56
2023-02-04T17:31:12.121Z,101554.84
2023-02-04T17:33:38.908Z,101547.81
2023-02-04T17:36:06.066Z,101561.09
2023-02-04T17:38:32.747Z,101568.09
2023-02-04T17:41:01.276Z,101569.19
2023-02-04T17:43:28.036Z,101585.16
2023-02-04T17:45:54.617Z,101579.13
2023-02-04T17:48:21.180Z,101600.25
2023-02-04T17:50:47.748Z,101606.69
2023-02-04T17:53:14.349Z,101597.69
2023-02-04T17:55:40.901Z,101610.09
2023-02-04T17:58:13.095Z,101623.25
2023-02-04T18:00:40.745Z,101626.81
2023-02-04T18:03:12.217Z,101640.19
2023-02-04T18:05:46.083Z,101650.97
2023-02-04T18:08:18.003Z,101644.72
2023-02-04T18:10:47.097Z,101650.91
2023-02-04T18:13:17.275Z,101655.47
2023-02-04T18:15:47.872Z,101659.88
2023-02-04T18:18:19.855Z,101663.53
2023-02-04T18:20:47.002Z,101674.13
2023-02-04T18:23:17.912Z,101673.28
2023-02-04T18:25:48.530Z,101679.63
2023-02-04T18:28:19.112Z,101683.19
2023-02-04T18:30:46.961Z,101682.38
2023-02-04T18:33:20.388Z,101692.19
2023-02-04T18:35:51.488Z,101679.88
2023-02-04T18:38:28.897Z,101686.16
2023-02-04T18:41:13.891Z,101687.97
2023-02-04T18:43:40.494Z,101686.41
2023-02-04T18:46:42.048Z,101690.66
2023-02-04T18:49:32.640Z,101680.09
2023-02-04T18:52:15.208Z,101690.75
2023-02-04T18:54:47.511Z,101698.75
2023-02-04T18:57:16.012Z,101697.81
2023-02-04T18:59:42.886Z,101710.19
2023-02-04T19:02:42.743Z,101716.47
2023-02-04T19:05:34.247Z,101708.50
2023-02-04T19:08:07.822Z,101707.78
2023-02-04T19:10:39.778Z,101713.25
2023-02-04T19:13:31.303Z,101712.38
2023-02-04T19:16:17.667Z,101717.69
2023-02-04T19:18:45.786Z,101716.84
2023-02-04T19:21:25.961Z,101721.34
2023-02-04T19:24:08.741Z,101725.00
2023-02-04T19:26:47.455Z,101713.66
2023-02-04T19:29:23.233Z,101713.56
2023-02-04T19:31:53.468Z,101710.13
2023-02-04T19:34:33.493Z,101701.38
2023-02-04T19:37:00.280Z,101704.03
2023-02-04T19:39:41.621Z,101702.19
2023-02-04T19:42:37.872Z,101707.44
2023-02-04T19:45:16.500Z,101715.38
2023-02-04T19:47:44.922Z,101719.75
2023-02-04T19:50:22.514Z,101730.34
2023-02-04T19:52:52.449Z,101731.28
2023-02-04T19:55:29.967Z,101730.47
2023-02-04T19:58:15.170Z,101735.78
2023-02-04T20:00:46.484Z,101741.13
2023-02-04T20:03:19.025Z,101735.84
2023-02-04T20:05:45.614Z,101734.13
2023-02-04T20:08:39.768Z,101738.63
2023-02-04T20:11:15.460Z,101741.25
2023-02-04T20:13:42.001Z,101748.41
2023-02-04T20:16:33.425Z,101751.94
2023-02-04T20:19:02.528Z,101746.72
2023-02-04T20:21:29.057Z,101743.19
2023-02-04T20:23:55.608Z,101752.94
2023-02-04T20:26:22.142Z,101741.50
2023-02-04T20:28:49.602Z,101729.09
2023-02-04T20:31:26.535Z,101741.50
2023-02-04T20:33:56.527Z,101745.97
2023-02-04T20:36:26.063Z,101754.69
2023-02-04T20:39:05.742Z,101753.00
2023-02-04T20:41:36.149Z,101753.09
2023-02-04T20:44:12.678Z,101747.75
2023-02-04T20:46:39.257Z,101748.63
2023-02-04T20:49:23.868Z,101739.03
2023-02-04T20:51:55.975Z,101747.97
2023-02-04T20:54:22.497Z,101742.69
2023-02-04T20:56:49.054Z,101746.97
2023-02-04T20:59:15.566Z,101749.56
2023-02-04T21:01:44.359Z,101743.38
2023-02-04T21:04:25.918Z,101738.22
2023-02-04T21:07:03.404Z,101727.63
2023-02-04T21:09:32.730Z,101729.41
2023-02-04T21:12:01.069Z,101744.31
2023-02-04T21:14:28.577Z,101735.44
2023-02-04T21:16:56.025Z,101736.38
2023-02-04T21:19:24.627Z,101738.22
2023-02-04T21:21:51.697Z,101746.22
2023-02-04T21:24:18.594Z,101745.34
2023-02-04T21:26:45.169Z,101751.53
2023-02-04T21:29:11.763Z,101756.91
2023-02-04T21:31:38.738Z,101742.03
2023-02-04T21:34:06.038Z,101749.00
2023-02-04T21:36:32.670Z,101742.69
2023-02-04T21:38:59.249Z,101749.78
2023-02-04T21:41:25.941Z,101741.75
2023-02-04T21:43:52.622Z,101729.50
2023-02-04T21:46:19.261Z,101742.72
2023-02-04T21:48:45.925Z,101740.97
2023-02-04T21:51:13.545Z,101744.50
2023-02-04T21:53:40.389Z,101742.72
2023-02-04T21:56:07.778Z,101745.44
2023-02-04T21:58:34.657Z,101746.38
2023-02-04T22:01:01.238Z,101742.03
2023-02-04T22:03:27.992Z,101739.38
2023-02-04T22:05:54.740Z,101738.47
2023-02-04T22:08:21.645Z,101741.19
2023-02-04T22:10:48.225Z,101751.72
2023-02-04T22:13:14.836Z,101740.28
2023-02-04T22:15:41.392Z,101748.22
2023-02-04T22:18:07.965Z,101750.81
2023-02-04T22:20:34.527Z,101752.56
2023-02-04T22:23:01.052Z,101749.88
2023-02-04T22:25:27.822Z,101746.44
2023-02-04T22:27:54.388Z,101753.44
2023-02-04T22:30:21.085Z,101760.47
2023-02-04T22:32:47.663Z,101741.09
2023-02-04T22:35:14.819Z,101751.63
2023-02-04T22:37:42.489Z,101748.09
2023-02-04T22:40:11.842Z,101748.06
2023-02-04T22:42:38.527Z,101744.50
2023-02-04T22:45:05.535Z,101747.97
2023-02-04T22:47:32.227Z,101743.59
2023-02-04T22:49:58.810Z,101744.50
2023-02-04T22:52:25.385Z,101746.28
2023-02-04T22:54:52.852Z,101740.16
2023-02-04T22:57:19.491Z,101755.19
2023-02-04T22:59:46.068Z,101746.44
2023-02-04T23:02:12.705Z,101760.50
2023-02-04T23:04:39.272Z,101760.47
2023-02-04T23:07:05.948Z,101766.72
2023-02-04T23:09:33.174Z,101768.50
2023-02-04T23:12:12.608Z,101770.34
2023-02-04T23:14:44.960Z,101781.75
2023-02-04T23:17:12.246Z,101789.75
2023-02-04T23:19:39.154Z,101787.13
2023-02-04T23:22:06.870Z,101787.13
2023-02-04T23:24:34.372Z,101795.13
2023-02-04T23:27:01.548Z,101794.31
2023-02-04T23:29:28.574Z,101797.84
2023-02-04T23:31:56.278Z,101794.31
2023-02-04T23:34:22.879Z,101786.31
2023-02-04T23:36:51.270Z,101776.56
2023-02-04T23:39:22.961Z,101793.31
2023-02-04T23:41:50.145Z,101791.59
2023-02-04T23:44:17.298Z,101798.66
2023-02-04T23:46:43.954Z,101805.63
2023-02-04T23:49:10.564Z,101808.31
2023-02-04T23:51:37.253Z,101804.81
2023-02-04T23:54:04.383Z,101797.78
2023-02-04T23:56:30.933Z,101798.66
2023-02-04T23:58:57.847Z,101801.34
